Terminal Aerodrome Forecast
Issued by NWS Cleveland, OH

Home | Current Version | Previous Version | Graphics & Text | Print | Product List | Glossary On
Versions: 1 2 3 4 5 6 7 8 9 10 11 12 13 14 15 16 17 18 19 20 21 22
000
FTUS41 KCLE 150535
TAFERI
TAF
KERI 150535Z 1506/1606 21008KT P6SM SCT025 OVC035
     FM152000 22015G25KT P6SM OVC015
     FM152300 24015G25KT 2SM -SHSN SCT008 OVC012=

USA.gov is the U.S. government's official web portal to all federal, state and local government web resources and services.